sensor_id;sensor_type;location;lat;lon;timestamp;P1;durP1;ratioP1;P2;durP2;ratioP2
21505;SDS011;10914;48.886;9.394;2023-11-22T00:02:05;29.15;;;27.35;;
21505;SDS011;10914;48.886;9.394;2023-11-22T00:04:31;29.40;;;27.40;;
21505;SDS011;10914;48.886;9.394;2023-11-22T00:06:56;29.67;;;27.95;;
21505;SDS011;10914;48.886;9.394;2023-11-22T00:09:21;29.63;;;28.00;;
21505;SDS011;10914;48.886;9.394;2023-11-22T00:11:48;31.40;;;29.40;;
21505;SDS011;10914;48.886;9.394;2023-11-22T00:14:14;30.05;;;28.35;;
21505;SDS011;10914;48.886;9.394;2023-11-22T00:16:39;29.13;;;27.35;;
21505;SDS011;10914;48.886;9.394;2023-11-22T00:19:04;29.63;;;27.92;;
21505;SDS011;10914;48.886;9.394;2023-11-22T00:21:31;30.52;;;28.63;;
21505;SDS011;10914;48.886;9.394;2023-11-22T00:23:56;30.80;;;29.00;;
21505;SDS011;10914;48.886;9.394;2023-11-22T00:26:22;32.10;;;30.20;;
21505;SDS011;10914;48.886;9.394;2023-11-22T00:28:48;33.15;;;31.05;;
21505;SDS011;10914;48.886;9.394;2023-11-22T00:31:14;30.35;;;28.45;;
21505;SDS011;10914;48.886;9.394;2023-11-22T00:33:39;31.80;;;29.80;;
21505;SDS011;10914;48.886;9.394;2023-11-22T00:36:05;30.45;;;28.60;;
21505;SDS011;10914;48.886;9.394;2023-11-22T00:38:33;33.75;;;31.73;;
21505;SDS011;10914;48.886;9.394;2023-11-22T00:41:01;30.75;;;28.85;;
21505;SDS011;10914;48.886;9.394;2023-11-22T00:43:27;31.58;;;29.63;;
21505;SDS011;10914;48.886;9.394;2023-11-22T00:45:52;31.17;;;29.13;;
21505;SDS011;10914;48.886;9.394;2023-11-22T00:48:17;30.58;;;28.75;;
21505;SDS011;10914;48.886;9.394;2023-11-22T00:50:43;33.45;;;31.45;;
21505;SDS011;10914;48.886;9.394;2023-11-22T00:53:08;30.95;;;28.95;;
21505;SDS011;10914;48.886;9.394;2023-11-22T00:55:34;32.25;;;30.25;;
21505;SDS011;10914;48.886;9.394;2023-11-22T00:58:00;35.38;;;33.17;;
21505;SDS011;10914;48.886;9.394;2023-11-22T01:00:29;36.88;;;34.58;;
21505;SDS011;10914;48.886;9.394;2023-11-22T01:02:54;33.33;;;31.33;;
21505;SDS011;10914;48.886;9.394;2023-11-22T01:05:19;30.60;;;28.65;;
21505;SDS011;10914;48.886;9.394;2023-11-22T01:07:45;31.60;;;29.45;;
21505;SDS011;10914;48.886;9.394;2023-11-22T01:10:10;31.77;;;29.67;;
21505;SDS011;10914;48.886;9.394;2023-11-22T01:12:36;32.65;;;30.10;;
21505;SDS011;10914;48.886;9.394;2023-11-22T01:15:02;31.02;;;29.02;;
21505;SDS011;10914;48.886;9.394;2023-11-22T01:17:27;32.30;;;30.30;;
21505;SDS011;10914;48.886;9.394;2023-11-22T01:19:52;32.83;;;30.73;;
21505;SDS011;10914;48.886;9.394;2023-11-22T01:22:18;30.85;;;28.85;;
21505;SDS011;10914;48.886;9.394;2023-11-22T01:24:43;30.30;;;28.40;;
21505;SDS011;10914;48.886;9.394;2023-11-22T01:27:08;29.55;;;27.75;;
21505;SDS011;10914;48.886;9.394;2023-11-22T01:29:34;30.77;;;28.70;;
21505;SDS011;10914;48.886;9.394;2023-11-22T01:31:59;29.70;;;27.88;;
21505;SDS011;10914;48.886;9.394;2023-11-22T01:34:25;29.55;;;27.75;;
21505;SDS011;10914;48.886;9.394;2023-11-22T01:36:51;29.38;;;27.58;;
21505;SDS011;10914;48.886;9.394;2023-11-22T01:39:16;28.38;;;26.65;;
21505;SDS011;10914;48.886;9.394;2023-11-22T01:41:44;29.92;;;28.13;;
21505;SDS011;10914;48.886;9.394;2023-11-22T01:44:10;30.05;;;28.23;;
21505;SDS011;10914;48.886;9.394;2023-11-22T01:46:35;30.77;;;28.80;;
21505;SDS011;10914;48.886;9.394;2023-11-22T01:49:01;30.13;;;28.33;;
21505;SDS011;10914;48.886;9.394;2023-11-22T01:51:26;29.73;;;27.88;;
21505;SDS011;10914;48.886;9.394;2023-11-22T01:53:52;29.95;;;28.05;;
21505;SDS011;10914;48.886;9.394;2023-11-22T01:56:22;29.92;;;28.02;;
21505;SDS011;10914;48.886;9.394;2023-11-22T01:58:54;30.27;;;28.40;;
21505;SDS011;10914;48.886;9.394;2023-11-22T02:01:20;32.58;;;30.58;;
21505;SDS011;10914;48.886;9.394;2023-11-22T02:03:46;32.03;;;29.92;;
21505;SDS011;10914;48.886;9.394;2023-11-22T02:06:13;32.88;;;30.88;;
21505;SDS011;10914;48.886;9.394;2023-11-22T02:08:41;33.95;;;31.63;;
21505;SDS011;10914;48.886;9.394;2023-11-22T02:11:06;33.20;;;31.13;;
21505;SDS011;10914;48.886;9.394;2023-11-22T02:13:32;32.67;;;30.58;;
21505;SDS011;10914;48.886;9.394;2023-11-22T02:15:57;32.10;;;30.10;;
21505;SDS011;10914;48.886;9.394;2023-11-22T02:18:25;32.15;;;30.25;;
21505;SDS011;10914;48.886;9.394;2023-11-22T02:20:50;32.28;;;30.40;;
21505;SDS011;10914;48.886;9.394;2023-11-22T02:23:16;31.98;;;29.98;;
21505;SDS011;10914;48.886;9.394;2023-11-22T02:25:42;32.83;;;30.73;;
21505;SDS011;10914;48.886;9.394;2023-11-22T02:28:07;32.65;;;30.63;;
21505;SDS011;10914;48.886;9.394;2023-11-22T02:30:33;31.40;;;29.50;;
21505;SDS011;10914;48.886;9.394;2023-11-22T02:32:59;31.90;;;29.98;;
21505;SDS011;10914;48.886;9.394;2023-11-22T02:35:24;31.95;;;29.92;;
21505;SDS011;10914;48.886;9.394;2023-11-22T02:37:49;31.80;;;29.95;;
21505;SDS011;10914;48.886;9.394;2023-11-22T02:40:19;30.45;;;28.65;;
21505;SDS011;10914;48.886;9.394;2023-11-22T02:42:48;30.35;;;28.55;;
21505;SDS011;10914;48.886;9.394;2023-11-22T02:45:14;30.45;;;28.55;;
21505;SDS011;10914;48.886;9.394;2023-11-22T02:47:39;30.63;;;28.83;;
21505;SDS011;10914;48.886;9.394;2023-11-22T02:50:05;29.50;;;27.70;;
21505;SDS011;10914;48.886;9.394;2023-11-22T02:52:30;30.63;;;28.83;;
21505;SDS011;10914;48.886;9.394;2023-11-22T02:54:56;31.52;;;29.52;;
21505;SDS011;10914;48.886;9.394;2023-11-22T02:57:21;31.15;;;29.17;;
21505;SDS011;10914;48.886;9.394;2023-11-22T02:59:46;31.15;;;29.25;;
21505;SDS011;10914;48.886;9.394;2023-11-22T03:02:12;30.77;;;28.83;;
21505;SDS011;10914;48.886;9.394;2023-11-22T03:04:37;31.88;;;29.80;;
21505;SDS011;10914;48.886;9.394;2023-11-22T03:07:03;31.20;;;29.40;;
21505;SDS011;10914;48.886;9.394;2023-11-22T03:09:28;32.40;;;30.50;;
21505;SDS011;10914;48.886;9.394;2023-11-22T03:11:54;33.20;;;31.33;;
21505;SDS011;10914;48.886;9.394;2023-11-22T03:14:20;33.67;;;31.58;;
21505;SDS011;10914;48.886;9.394;2023-11-22T03:16:47;35.60;;;33.38;;
21505;SDS011;10914;48.886;9.394;2023-11-22T03:19:12;33.33;;;31.33;;
21505;SDS011;10914;48.886;9.394;2023-11-22T03:21:38;32.85;;;30.88;;
21505;SDS011;10914;48.886;9.394;2023-11-22T03:24:04;33.83;;;31.83;;
21505;SDS011;10914;48.886;9.394;2023-11-22T03:26:29;33.28;;;31.27;;
21505;SDS011;10914;48.886;9.394;2023-11-22T03:28:55;32.58;;;30.52;;
21505;SDS011;10914;48.886;9.394;2023-11-22T03:31:20;31.92;;;30.02;;
21505;SDS011;10914;48.886;9.394;2023-11-22T03:33:46;33.13;;;31.10;;
21505;SDS011;10914;48.886;9.394;2023-11-22T03:36:11;32.17;;;30.17;;
21505;SDS011;10914;48.886;9.394;2023-11-22T03:38:36;30.85;;;28.98;;
21505;SDS011;10914;48.886;9.394;2023-11-22T03:41:02;32.75;;;30.83;;
21505;SDS011;10914;48.886;9.394;2023-11-22T03:43:27;33.58;;;31.48;;
21505;SDS011;10914;48.886;9.394;2023-11-22T03:45:53;33.25;;;31.15;;
21505;SDS011;10914;48.886;9.394;2023-11-22T03:48:18;33.40;;;31.20;;
21505;SDS011;10914;48.886;9.394;2023-11-22T03:50:43;33.67;;;31.58;;
21505;SDS011;10914;48.886;9.394;2023-11-22T03:53:08;34.67;;;32.60;;
21505;SDS011;10914;48.886;9.394;2023-11-22T03:55:34;34.38;;;32.17;;
21505;SDS011;10914;48.886;9.394;2023-11-22T03:57:59;36.05;;;33.67;;
21505;SDS011;10914;48.886;9.394;2023-11-22T04:00:24;35.75;;;33.72;;
21505;SDS011;10914;48.886;9.394;2023-11-22T04:02:50;37.78;;;35.47;;
21505;SDS011;10914;48.886;9.394;2023-11-22T04:05:15;37.35;;;35.17;;
21505;SDS011;10914;48.886;9.394;2023-11-22T04:07:40;37.60;;;35.17;;
21505;SDS011;10914;48.886;9.394;2023-11-22T04:10:06;37.78;;;35.35;;
21505;SDS011;10914;48.886;9.394;2023-11-22T04:12:31;38.83;;;36.53;;
21505;SDS011;10914;48.886;9.394;2023-11-22T04:14:57;37.25;;;35.15;;
21505;SDS011;10914;48.886;9.394;2023-11-22T04:17:23;40.83;;;38.42;;
21505;SDS011;10914;48.886;9.394;2023-11-22T04:19:49;38.88;;;36.63;;
21505;SDS011;10914;48.886;9.394;2023-11-22T04:22:14;35.38;;;33.35;;
21505;SDS011;10914;48.886;9.394;2023-11-22T04:24:39;38.42;;;36.10;;
21505;SDS011;10914;48.886;9.394;2023-11-22T04:27:04;42.13;;;39.53;;
21505;SDS011;10914;48.886;9.394;2023-11-22T04:29:30;37.78;;;35.42;;
21505;SDS011;10914;48.886;9.394;2023-11-22T04:31:55;42.50;;;40.00;;
21505;SDS011;10914;48.886;9.394;2023-11-22T04:34:20;38.08;;;35.88;;
21505;SDS011;10914;48.886;9.394;2023-11-22T04:36:46;37.05;;;34.85;;
21505;SDS011;10914;48.886;9.394;2023-11-22T04:39:14;39.25;;;36.90;;
21505;SDS011;10914;48.886;9.394;2023-11-22T04:41:39;36.90;;;34.60;;
21505;SDS011;10914;48.886;9.394;2023-11-22T04:44:04;40.78;;;38.47;;
21505;SDS011;10914;48.886;9.394;2023-11-22T04:46:30;41.20;;;38.80;;
21505;SDS011;10914;48.886;9.394;2023-11-22T04:48:55;40.28;;;37.78;;
21505;SDS011;10914;48.886;9.394;2023-11-22T04:51:21;37.75;;;35.58;;
21505;SDS011;10914;48.886;9.394;2023-11-22T04:53:46;36.65;;;34.50;;
21505;SDS011;10914;48.886;9.394;2023-11-22T04:56:11;39.85;;;37.45;;
21505;SDS011;10914;48.886;9.394;2023-11-22T04:58:39;37.60;;;35.47;;
21505;SDS011;10914;48.886;9.394;2023-11-22T05:01:04;37.08;;;34.58;;
21505;SDS011;10914;48.886;9.394;2023-11-22T05:03:29;39.90;;;37.42;;
21505;SDS011;10914;48.886;9.394;2023-11-22T05:05:55;38.28;;;35.97;;
21505;SDS011;10914;48.886;9.394;2023-11-22T05:08:20;39.25;;;36.80;;
21505;SDS011;10914;48.886;9.394;2023-11-22T05:10:45;37.28;;;34.95;;
21505;SDS011;10914;48.886;9.394;2023-11-22T05:13:11;40.10;;;37.90;;
21505;SDS011;10914;48.886;9.394;2023-11-22T05:15:36;41.53;;;39.03;;
21505;SDS011;10914;48.886;9.394;2023-11-22T05:18:01;37.53;;;35.25;;
21505;SDS011;10914;48.886;9.394;2023-11-22T05:20:27;42.50;;;40.13;;
21505;SDS011;10914;48.886;9.394;2023-11-22T05:22:52;43.45;;;40.67;;
21505;SDS011;10914;48.886;9.394;2023-11-22T05:25:17;42.50;;;39.88;;
21505;SDS011;10914;48.886;9.394;2023-11-22T05:27:43;43.67;;;41.10;;
21505;SDS011;10914;48.886;9.394;2023-11-22T05:30:09;41.17;;;38.58;;
21505;SDS011;10914;48.886;9.394;2023-11-22T05:32:36;38.75;;;36.40;;
21505;SDS011;10914;48.886;9.394;2023-11-22T05:35:01;39.55;;;37.25;;
21505;SDS011;10914;48.886;9.394;2023-11-22T05:37:28;36.13;;;33.83;;
21505;SDS011;10914;48.886;9.394;2023-11-22T05:39:54;38.78;;;36.45;;
21505;SDS011;10914;48.886;9.394;2023-11-22T05:42:19;38.65;;;36.25;;
21505;SDS011;10914;48.886;9.394;2023-11-22T05:44:45;42.50;;;40.10;;
21505;SDS011;10914;48.886;9.394;2023-11-22T05:47:10;38.72;;;36.47;;
21505;SDS011;10914;48.886;9.394;2023-11-22T05:49:35;38.83;;;36.42;;
21505;SDS011;10914;48.886;9.394;2023-11-22T05:52:00;36.50;;;34.42;;
21505;SDS011;10914;48.886;9.394;2023-11-22T05:54:26;36.78;;;34.55;;
21505;SDS011;10914;48.886;9.394;2023-11-22T05:56:51;37.75;;;35.45;;
21505;SDS011;10914;48.886;9.394;2023-11-22T05:59:16;37.65;;;35.40;;
21505;SDS011;10914;48.886;9.394;2023-11-22T06:01:41;39.15;;;36.85;;
21505;SDS011;10914;48.886;9.394;2023-11-22T06:04:07;37.28;;;35.03;;
21505;SDS011;10914;48.886;9.394;2023-11-22T06:06:34;37.60;;;35.28;;
21505;SDS011;10914;48.886;9.394;2023-11-22T06:08:59;36.58;;;34.47;;
21505;SDS011;10914;48.886;9.394;2023-11-22T06:11:25;35.08;;;32.95;;
21505;SDS011;10914;48.886;9.394;2023-11-22T06:13:50;36.85;;;34.55;;
21505;SDS011;10914;48.886;9.394;2023-11-22T06:16:16;38.58;;;35.85;;
21505;SDS011;10914;48.886;9.394;2023-11-22T06:18:41;38.83;;;36.10;;
21505;SDS011;10914;48.886;9.394;2023-11-22T06:21:07;39.08;;;36.47;;
21505;SDS011;10914;48.886;9.394;2023-11-22T06:23:32;39.72;;;37.22;;
21505;SDS011;10914;48.886;9.394;2023-11-22T06:25:58;38.92;;;36.20;;
21505;SDS011;10914;48.886;9.394;2023-11-22T06:28:23;35.88;;;33.67;;
21505;SDS011;10914;48.886;9.394;2023-11-22T06:30:48;35.83;;;33.42;;
21505;SDS011;10914;48.886;9.394;2023-11-22T06:33:13;34.35;;;32.08;;
21505;SDS011;10914;48.886;9.394;2023-11-22T06:35:39;35.35;;;33.08;;
21505;SDS011;10914;48.886;9.394;2023-11-22T06:38:04;34.03;;;31.83;;
21505;SDS011;10914;48.886;9.394;2023-11-22T06:40:29;35.53;;;33.33;;
21505;SDS011;10914;48.886;9.394;2023-11-22T06:42:57;32.88;;;30.88;;
21505;SDS011;10914;48.886;9.394;2023-11-22T06:45:22;32.40;;;30.38;;
21505;SDS011;10914;48.886;9.394;2023-11-22T06:47:48;33.67;;;31.58;;
21505;SDS011;10914;48.886;9.394;2023-11-22T06:50:15;32.35;;;30.35;;
21505;SDS011;10914;48.886;9.394;2023-11-22T06:52:41;33.22;;;31.15;;
21505;SDS011;10914;48.886;9.394;2023-11-22T06:55:07;32.88;;;30.77;;
21505;SDS011;10914;48.886;9.394;2023-11-22T06:57:36;33.03;;;30.83;;
21505;SDS011;10914;48.886;9.394;2023-11-22T07:00:01;31.75;;;29.60;;
21505;SDS011;10914;48.886;9.394;2023-11-22T07:02:29;32.10;;;30.08;;
21505;SDS011;10914;48.886;9.394;2023-11-22T07:04:55;32.45;;;30.45;;
21505;SDS011;10914;48.886;9.394;2023-11-22T07:07:20;32.42;;;30.27;;
21505;SDS011;10914;48.886;9.394;2023-11-22T07:09:45;31.90;;;30.10;;
21505;SDS011;10914;48.886;9.394;2023-11-22T07:12:11;35.97;;;33.53;;
21505;SDS011;10914;48.886;9.394;2023-11-22T07:14:39;32.72;;;30.77;;
21505;SDS011;10914;48.886;9.394;2023-11-22T07:17:05;34.10;;;32.20;;
21505;SDS011;10914;48.886;9.394;2023-11-22T07:19:33;34.47;;;32.47;;
21505;SDS011;10914;48.886;9.394;2023-11-22T07:22:03;35.10;;;33.20;;
21505;SDS011;10914;48.886;9.394;2023-11-22T07:24:29;33.58;;;31.67;;
21505;SDS011;10914;48.886;9.394;2023-11-22T07:26:59;35.60;;;33.58;;
21505;SDS011;10914;48.886;9.394;2023-11-22T07:29:25;38.67;;;36.45;;
21505;SDS011;10914;48.886;9.394;2023-11-22T07:31:51;40.05;;;37.70;;
21505;SDS011;10914;48.886;9.394;2023-11-22T07:34:16;42.42;;;39.92;;
21505;SDS011;10914;48.886;9.394;2023-11-22T07:36:43;38.22;;;35.92;;
21505;SDS011;10914;48.886;9.394;2023-11-22T07:39:09;39.05;;;36.78;;
21505;SDS011;10914;48.886;9.394;2023-11-22T07:41:36;35.53;;;33.40;;
21505;SDS011;10914;48.886;9.394;2023-11-22T07:44:02;33.92;;;31.85;;
21505;SDS011;10914;48.886;9.394;2023-11-22T07:46:27;32.78;;;30.48;;
21505;SDS011;10914;48.886;9.394;2023-11-22T07:48:52;32.15;;;30.02;;
21505;SDS011;10914;48.886;9.394;2023-11-22T07:51:18;32.17;;;30.20;;
21505;SDS011;10914;48.886;9.394;2023-11-22T07:53:43;33.25;;;31.13;;
21505;SDS011;10914;48.886;9.394;2023-11-22T07:56:08;31.08;;;29.20;;
21505;SDS011;10914;48.886;9.394;2023-11-22T07:58:34;31.55;;;29.65;;
21505;SDS011;10914;48.886;9.394;2023-11-22T08:01:00;32.50;;;30.42;;
21505;SDS011;10914;48.886;9.394;2023-11-22T08:03:30;33.78;;;31.40;;
21505;SDS011;10914;48.886;9.394;2023-11-22T08:05:55;33.65;;;31.48;;
21505;SDS011;10914;48.886;9.394;2023-11-22T08:08:23;33.20;;;31.15;;
21505;SDS011;10914;48.886;9.394;2023-11-22T08:10:49;31.90;;;29.85;;
21505;SDS011;10914;48.886;9.394;2023-11-22T08:13:16;32.17;;;30.15;;
21505;SDS011;10914;48.886;9.394;2023-11-22T08:15:44;32.13;;;29.85;;
21505;SDS011;10914;48.886;9.394;2023-11-22T08:18:11;33.00;;;30.63;;
21505;SDS011;10914;48.886;9.394;2023-11-22T08:20:36;31.23;;;29.13;;
21505;SDS011;10914;48.886;9.394;2023-11-22T08:23:02;31.58;;;29.58;;
21505;SDS011;10914;48.886;9.394;2023-11-22T08:25:28;30.08;;;28.17;;
21505;SDS011;10914;48.886;9.394;2023-11-22T08:27:54;30.42;;;28.52;;
21505;SDS011;10914;48.886;9.394;2023-11-22T08:30:19;30.40;;;28.50;;
21505;SDS011;10914;48.886;9.394;2023-11-22T08:32:45;30.55;;;28.63;;
21505;SDS011;10914;48.886;9.394;2023-11-22T08:35:16;31.45;;;29.55;;
21505;SDS011;10914;48.886;9.394;2023-11-22T08:37:41;31.23;;;29.23;;
21505;SDS011;10914;48.886;9.394;2023-11-22T08:40:07;34.45;;;31.85;;
21505;SDS011;10914;48.886;9.394;2023-11-22T08:42:33;34.70;;;32.10;;
21505;SDS011;10914;48.886;9.394;2023-11-22T08:44:58;34.05;;;31.63;;
21505;SDS011;10914;48.886;9.394;2023-11-22T08:47:24;33.70;;;31.30;;
21505;SDS011;10914;48.886;9.394;2023-11-22T08:49:49;34.28;;;31.98;;
21505;SDS011;10914;48.886;9.394;2023-11-22T08:52:14;34.60;;;32.30;;
21505;SDS011;10914;48.886;9.394;2023-11-22T08:54:39;35.72;;;33.53;;
21505;SDS011;10914;48.886;9.394;2023-11-22T08:57:05;35.28;;;32.97;;
21505;SDS011;10914;48.886;9.394;2023-11-22T08:59:31;36.13;;;33.75;;
21505;SDS011;10914;48.886;9.394;2023-11-22T09:01:57;36.90;;;34.47;;
21505;SDS011;10914;48.886;9.394;2023-11-22T09:04:23;38.55;;;35.75;;
21505;SDS011;10914;48.886;9.394;2023-11-22T09:06:51;36.97;;;34.55;;
21505;SDS011;10914;48.886;9.394;2023-11-22T09:09:16;36.67;;;34.33;;
21505;SDS011;10914;48.886;9.394;2023-11-22T09:11:41;39.25;;;36.67;;
21505;SDS011;10914;48.886;9.394;2023-11-22T09:14:07;36.72;;;34.38;;
21505;SDS011;10914;48.886;9.394;2023-11-22T09:16:38;37.13;;;34.67;;
21505;SDS011;10914;48.886;9.394;2023-11-22T09:19:04;38.20;;;35.90;;
21505;SDS011;10914;48.886;9.394;2023-11-22T09:21:31;40.97;;;38.42;;
21505;SDS011;10914;48.886;9.394;2023-11-22T09:23:56;38.13;;;35.83;;
21505;SDS011;10914;48.886;9.394;2023-11-22T09:26:21;38.17;;;35.88;;
21505;SDS011;10914;48.886;9.394;2023-11-22T09:28:46;40.53;;;37.95;;
21505;SDS011;10914;48.886;9.394;2023-11-22T09:31:12;37.70;;;35.30;;
21505;SDS011;10914;48.886;9.394;2023-11-22T09:33:42;38.08;;;35.67;;
21505;SDS011;10914;48.886;9.394;2023-11-22T09:36:08;37.25;;;34.85;;
21505;SDS011;10914;48.886;9.394;2023-11-22T09:38:33;35.50;;;33.20;;
21505;SDS011;10914;48.886;9.394;2023-11-22T09:40:59;37.80;;;35.45;;
21505;SDS011;10914;48.886;9.394;2023-11-22T09:43:24;38.17;;;35.78;;
21505;SDS011;10914;48.886;9.394;2023-11-22T09:45:50;39.38;;;36.80;;
21505;SDS011;10914;48.886;9.394;2023-11-22T09:48:17;37.78;;;35.42;;
21505;SDS011;10914;48.886;9.394;2023-11-22T09:53:22;36.70;;;34.30;;
21505;SDS011;10914;48.886;9.394;2023-11-22T09:55:50;36.70;;;34.38;;
21505;SDS011;10914;48.886;9.394;2023-11-22T09:58:16;41.08;;;38.45;;
21505;SDS011;10914;48.886;9.394;2023-11-22T10:00:41;40.83;;;38.17;;
21505;SDS011;10914;48.886;9.394;2023-11-22T10:03:06;41.65;;;39.08;;
21505;SDS011;10914;48.886;9.394;2023-11-22T10:05:32;37.65;;;35.17;;
21505;SDS011;10914;48.886;9.394;2023-11-22T10:07:58;38.95;;;36.45;;
21505;SDS011;10914;48.886;9.394;2023-11-22T10:10:24;38.40;;;36.05;;
21505;SDS011;10914;48.886;9.394;2023-11-22T10:12:53;39.10;;;36.67;;
21505;SDS011;10914;48.886;9.394;2023-11-22T10:15:21;37.95;;;35.50;;
21505;SDS011;10914;48.886;9.394;2023-11-22T10:17:49;36.63;;;34.22;;
21505;SDS011;10914;48.886;9.394;2023-11-22T10:20:18;38.65;;;36.25;;
21505;SDS011;10914;48.886;9.394;2023-11-22T10:22:44;39.33;;;36.80;;
21505;SDS011;10914;48.886;9.394;2023-11-22T10:25:10;38.00;;;35.60;;
21505;SDS011;10914;48.886;9.394;2023-11-22T10:27:37;40.50;;;37.95;;
21505;SDS011;10914;48.886;9.394;2023-11-22T10:30:02;36.15;;;33.83;;
21505;SDS011;10914;48.886;9.394;2023-11-22T10:32:28;42.20;;;39.70;;
21505;SDS011;10914;48.886;9.394;2023-11-22T10:34:53;39.58;;;37.17;;
21505;SDS011;10914;48.886;9.394;2023-11-22T10:37:18;36.08;;;33.70;;
21505;SDS011;10914;48.886;9.394;2023-11-22T10:39:49;38.42;;;35.83;;
21505;SDS011;10914;48.886;9.394;2023-11-22T10:42:15;37.42;;;35.05;;
21505;SDS011;10914;48.886;9.394;2023-11-22T10:44:41;36.90;;;34.47;;
21505;SDS011;10914;48.886;9.394;2023-11-22T10:47:07;36.13;;;33.72;;
21505;SDS011;10914;48.886;9.394;2023-11-22T10:49:33;36.05;;;33.80;;
21505;SDS011;10914;48.886;9.394;2023-11-22T10:51:59;37.60;;;35.05;;
21505;SDS011;10914;48.886;9.394;2023-11-22T10:54:25;34.92;;;32.63;;
21505;SDS011;10914;48.886;9.394;2023-11-22T10:56:54;35.88;;;33.58;;
21505;SDS011;10914;48.886;9.394;2023-11-22T10:59:21;34.08;;;31.73;;
21505;SDS011;10914;48.886;9.394;2023-11-22T11:01:47;33.75;;;31.67;;
21505;SDS011;10914;48.886;9.394;2023-11-22T11:04:28;34.25;;;31.77;;
21505;SDS011;10914;48.886;9.394;2023-11-22T11:06:54;33.10;;;30.90;;
21505;SDS011;10914;48.886;9.394;2023-11-22T11:09:22;33.05;;;30.95;;
21505;SDS011;10914;48.886;9.394;2023-11-22T11:11:53;32.55;;;30.33;;
21505;SDS011;10914;48.886;9.394;2023-11-22T11:14:18;33.28;;;30.98;;
21505;SDS011;10914;48.886;9.394;2023-11-22T11:16:44;34.00;;;31.80;;
21505;SDS011;10914;48.886;9.394;2023-11-22T11:19:14;33.97;;;31.77;;
21505;SDS011;10914;48.886;9.394;2023-11-22T11:21:39;33.60;;;31.50;;
21505;SDS011;10914;48.886;9.394;2023-11-22T11:24:05;33.78;;;31.58;;
21505;SDS011;10914;48.886;9.394;2023-11-22T11:26:33;32.63;;;30.40;;
21505;SDS011;10914;48.886;9.394;2023-11-22T11:29:02;33.17;;;31.08;;
21505;SDS011;10914;48.886;9.394;2023-11-22T11:31:32;33.95;;;31.75;;
21505;SDS011;10914;48.886;9.394;2023-11-22T11:34:00;34.03;;;31.73;;
21505;SDS011;10914;48.886;9.394;2023-11-22T11:36:29;33.90;;;31.70;;
21505;SDS011;10914;48.886;9.394;2023-11-22T11:38:56;34.63;;;32.53;;
21505;SDS011;10914;48.886;9.394;2023-11-22T11:41:27;33.97;;;31.83;;
21505;SDS011;10914;48.886;9.394;2023-11-22T11:43:53;32.90;;;30.70;;
21505;SDS011;10914;48.886;9.394;2023-11-22T11:46:19;32.20;;;30.20;;
21505;SDS011;10914;48.886;9.394;2023-11-22T11:48:51;33.53;;;31.23;;
21505;SDS011;10914;48.886;9.394;2023-11-22T11:51:18;33.17;;;31.08;;
21505;SDS011;10914;48.886;9.394;2023-11-22T11:53:44;33.17;;;30.98;;
21505;SDS011;10914;48.886;9.394;2023-11-22T11:56:10;34.13;;;31.92;;
21505;SDS011;10914;48.886;9.394;2023-11-22T11:58:35;32.78;;;30.67;;
21505;SDS011;10914;48.886;9.394;2023-11-22T12:01:00;33.40;;;31.25;;
21505;SDS011;10914;48.886;9.394;2023-11-22T12:03:27;33.67;;;31.48;;
21505;SDS011;10914;48.886;9.394;2023-11-22T12:05:52;34.10;;;31.90;;
21505;SDS011;10914;48.886;9.394;2023-11-22T12:08:17;31.20;;;29.30;;
21505;SDS011;10914;48.886;9.394;2023-11-22T12:10:44;32.50;;;30.40;;
21505;SDS011;10914;48.886;9.394;2023-11-22T12:13:15;30.95;;;28.88;;
21505;SDS011;10914;48.886;9.394;2023-11-22T12:15:41;32.25;;;30.10;;
21505;SDS011;10914;48.886;9.394;2023-11-22T12:18:07;33.10;;;30.85;;
21505;SDS011;10914;48.886;9.394;2023-11-22T12:20:32;32.90;;;30.73;;
21505;SDS011;10914;48.886;9.394;2023-11-22T12:22:58;33.70;;;31.60;;
21505;SDS011;10914;48.886;9.394;2023-11-22T12:25:28;33.80;;;31.60;;
21505;SDS011;10914;48.886;9.394;2023-11-22T12:27:54;33.22;;;31.23;;
21505;SDS011;10914;48.886;9.394;2023-11-22T12:30:29;34.17;;;32.03;;
21505;SDS011;10914;48.886;9.394;2023-11-22T12:32:56;34.17;;;32.08;;
21505;SDS011;10914;48.886;9.394;2023-11-22T12:35:22;34.33;;;32.03;;
21505;SDS011;10914;48.886;9.394;2023-11-22T12:37:48;34.58;;;32.20;;
21505;SDS011;10914;48.886;9.394;2023-11-22T12:40:13;35.05;;;32.60;;
21505;SDS011;10914;48.886;9.394;2023-11-22T12:42:49;33.85;;;31.70;;
21505;SDS011;10914;48.886;9.394;2023-11-22T12:45:21;33.75;;;31.73;;
21505;SDS011;10914;48.886;9.394;2023-11-22T12:47:48;34.28;;;32.08;;
21505;SDS011;10914;48.886;9.394;2023-11-22T12:53:07;33.80;;;31.52;;
21505;SDS011;10914;48.886;9.394;2023-11-22T12:55:33;33.58;;;31.27;;
21505;SDS011;10914;48.886;9.394;2023-11-22T12:57:59;33.85;;;31.73;;
21505;SDS011;10914;48.886;9.394;2023-11-22T13:00:28;34.28;;;32.08;;
21505;SDS011;10914;48.886;9.394;2023-11-22T13:02:55;33.03;;;30.92;;
21505;SDS011;10914;48.886;9.394;2023-11-22T13:05:21;33.08;;;31.00;;
21505;SDS011;10914;48.886;9.394;2023-11-22T13:07:47;33.90;;;31.70;;
21505;SDS011;10914;48.886;9.394;2023-11-22T13:10:12;33.58;;;31.38;;
21505;SDS011;10914;48.886;9.394;2023-11-22T13:12:41;33.78;;;31.67;;
21505;SDS011;10914;48.886;9.394;2023-11-22T13:15:08;32.78;;;30.67;;
21505;SDS011;10914;48.886;9.394;2023-11-22T13:17:34;33.60;;;31.40;;
21505;SDS011;10914;48.886;9.394;2023-11-22T13:19:59;33.45;;;31.35;;
21505;SDS011;10914;48.886;9.394;2023-11-22T13:22:25;34.58;;;32.38;;
21505;SDS011;10914;48.886;9.394;2023-11-22T13:24:50;35.28;;;32.90;;
21505;SDS011;10914;48.886;9.394;2023-11-22T13:27:15;36.70;;;34.13;;
21505;SDS011;10914;48.886;9.394;2023-11-22T13:29:40;37.70;;;35.10;;
21505;SDS011;10914;48.886;9.394;2023-11-22T13:32:09;37.45;;;34.85;;
21505;SDS011;10914;48.886;9.394;2023-11-22T13:34:34;36.08;;;33.85;;
21505;SDS011;10914;48.886;9.394;2023-11-22T13:36:59;35.97;;;33.65;;
21505;SDS011;10914;48.886;9.394;2023-11-22T13:39:25;35.10;;;32.90;;
21505;SDS011;10914;48.886;9.394;2023-11-22T13:41:50;35.00;;;32.85;;
21505;SDS011;10914;48.886;9.394;2023-11-22T13:44:16;36.30;;;33.97;;
21505;SDS011;10914;48.886;9.394;2023-11-22T13:46:43;36.58;;;34.17;;
21505;SDS011;10914;48.886;9.394;2023-11-22T13:49:08;35.17;;;32.92;;
21505;SDS011;10914;48.886;9.394;2023-11-22T13:51:33;36.70;;;34.22;;
21505;SDS011;10914;48.886;9.394;2023-11-22T13:54:00;34.83;;;32.63;;
21505;SDS011;10914;48.886;9.394;2023-11-22T13:56:25;34.78;;;32.67;;
21505;SDS011;10914;48.886;9.394;2023-11-22T13:58:51;35.33;;;33.13;;
21505;SDS011;10914;48.886;9.394;2023-11-22T14:01:16;35.58;;;33.17;;
21505;SDS011;10914;48.886;9.394;2023-11-22T14:03:46;34.45;;;32.05;;
21505;SDS011;10914;48.886;9.394;2023-11-22T14:06:12;36.35;;;34.15;;
21505;SDS011;10914;48.886;9.394;2023-11-22T14:08:41;36.15;;;33.85;;
21505;SDS011;10914;48.886;9.394;2023-11-22T14:11:06;36.72;;;34.22;;
21505;SDS011;10914;48.886;9.394;2023-11-22T14:13:32;37.35;;;35.05;;
21505;SDS011;10914;48.886;9.394;2023-11-22T14:15:57;39.42;;;37.13;;
21505;SDS011;10914;48.886;9.394;2023-11-22T14:18:22;38.45;;;35.97;;
21505;SDS011;10914;48.886;9.394;2023-11-22T14:20:48;39.47;;;36.97;;